createdAt,value
2018-09-12T00:06:28.753Z,15.59
2018-09-12T00:17:29.828Z,15.64
2018-09-12T00:28:31.687Z,15.78
2018-09-12T00:39:34.421Z,15.70
2018-09-12T00:50:35.505Z,15.43
2018-09-12T01:01:36.879Z,15.35
2018-09-12T01:12:37.667Z,15.26
2018-09-12T01:23:39.057Z,15.18
2018-09-12T01:34:40.606Z,15.20
2018-09-12T01:45:42.161Z,15.03
2018-09-12T01:56:44.175Z,15.03
2018-09-12T02:07:45.270Z,14.85
2018-09-12T02:18:47.643Z,14.64
2018-09-12T02:29:49.191Z,14.61
2018-09-12T02:40:49.951Z,14.52
2018-09-12T02:51:49.112Z,14.52
2018-09-12T03:02:51.396Z,14.34
2018-09-12T03:13:51.271Z,14.21
2018-09-12T03:24:53.422Z,14.19
2018-09-12T03:35:54.916Z,14.09
2018-09-12T03:46:56.800Z,14.17
2018-09-12T03:57:59.821Z,14.02
2018-09-12T04:09:01.146Z,13.89
2018-09-12T04:20:02.932Z,13.84
2018-09-12T04:31:04.176Z,13.70
2018-09-12T04:42:03.924Z,13.86
2018-09-12T04:53:01.468Z,13.96
2018-09-12T05:04:03.421Z,13.83
2018-09-12T05:15:06.509Z,13.94
2018-09-12T05:26:09.520Z,14.32
2018-09-12T05:37:10.265Z,14.80
2018-09-12T05:48:12.197Z,15.23
2018-09-12T05:59:13.573Z,15.86
2018-09-12T06:10:16.597Z,16.18
2018-09-12T06:21:19.398Z,16.53
2018-09-12T06:32:20.975Z,17.38
2018-09-12T06:43:23.487Z,17.48
2018-09-12T06:54:24.816Z,17.76
2018-09-12T07:05:27.133Z,18.49
2018-09-12T07:16:29.918Z,18.94
2018-09-12T07:27:31.919Z,19.32
2018-09-12T07:38:35.374Z,20.19
2018-09-12T07:49:37.610Z,20.27
2018-09-12T08:00:38.372Z,20.82
2018-09-12T08:11:42.136Z,21.30
2018-09-12T08:22:42.828Z,21.70
2018-09-12T08:33:44.742Z,22.23
2018-09-12T08:44:43.830Z,22.57
2018-09-12T08:55:47.175Z,23.14
2018-09-12T09:06:49.710Z,23.68
2018-09-12T09:17:52.241Z,23.87
2018-09-12T09:28:54.673Z,24.11
2018-09-12T09:39:57.713Z,24.54
2018-09-12T09:50:59.893Z,25.55
2018-09-12T10:02:03.059Z,25.71
2018-09-12T10:13:04.370Z,25.72
2018-09-12T10:24:06.608Z,25.96
2018-09-12T10:35:10.102Z,26.38
2018-09-12T10:46:13.470Z,26.97
2018-09-12T10:57:16.154Z,27.20
2018-09-12T11:08:17.621Z,27.35
2018-09-12T11:19:15.159Z,27.98
2018-09-12T11:30:09.809Z,28.69
2018-09-12T11:41:13.592Z,29.32
2018-09-12T11:52:14.442Z,29.04
2018-09-12T12:03:16.132Z,28.76
2018-09-12T12:14:18.473Z,29.32
2018-09-12T12:25:17.464Z,29.26
2018-09-12T12:36:19.521Z,29.09
2018-09-12T12:47:22.988Z,29.13
2018-09-12T12:58:25.879Z,29.50
2018-09-12T13:09:27.599Z,30.67
2018-09-12T13:20:31.101Z,30.60
2018-09-12T13:31:27.049Z,31.11
2018-09-12T13:42:26.262Z,31.12
2018-09-12T13:53:24.536Z,30.87
2018-09-12T14:04:24.058Z,30.64
2018-09-12T14:15:19.082Z,30.53
2018-09-12T14:26:21.594Z,31.27
2018-09-12T14:37:05.703Z,29.80
2018-09-12T14:48:05.061Z,29.58
2018-09-12T14:59:05.595Z,28.28
2018-09-12T15:10:05.791Z,28.19
2018-09-12T15:21:06.948Z,27.38
2018-09-12T15:32:08.386Z,27.27
2018-09-12T15:43:08.121Z,26.82
2018-09-12T15:54:08.040Z,26.64
2018-09-12T16:05:09.056Z,26.05
2018-09-12T16:15:56.645Z,26.53
2018-09-12T16:26:34.476Z,25.04
2018-09-12T16:37:33.926Z,24.38
2018-09-12T16:48:33.265Z,23.70
2018-09-12T16:59:33.128Z,23.08
2018-09-12T17:10:31.644Z,22.44
2018-09-12T17:21:29.318Z,22.24
2018-09-12T17:32:30.887Z,21.85
2018-09-12T17:43:32.530Z,21.48
2018-09-12T17:54:29.593Z,21.01
2018-09-12T18:05:21.229Z,20.56
2018-09-12T18:16:16.205Z,20.28
2018-09-12T18:27:12.498Z,20.03
2018-09-12T18:38:13.148Z,19.93
2018-09-12T18:49:14.436Z,19.80
2018-09-12T19:00:09.497Z,19.61
2018-09-12T19:11:05.760Z,19.27
2018-09-12T19:21:59.518Z,19.11
2018-09-12T19:33:01.004Z,19.06
2018-09-12T19:43:45.777Z,18.80
2018-09-12T19:54:45.988Z,18.84
2018-09-12T20:05:45.488Z,18.64
2018-09-12T20:16:43.596Z,18.43
2018-09-12T20:27:44.297Z,18.52
2018-09-12T20:38:27.560Z,18.50
2018-09-12T20:49:25.708Z,18.29
2018-09-12T21:00:27.611Z,18.19
2018-09-12T21:11:29.751Z,18.07
2018-09-12T21:22:31.021Z,17.81
2018-09-12T21:33:32.345Z,17.64
2018-09-12T21:44:34.652Z,17.63
2018-09-12T21:55:36.397Z,17.54
2018-09-12T22:06:38.752Z,17.47
2018-09-12T22:17:40.904Z,17.36
2018-09-12T22:28:42.266Z,17.29
2018-09-12T22:39:43.925Z,17.28
2018-09-12T22:50:29.440Z,17.33
2018-09-12T23:01:31.470Z,17.14
2018-09-12T23:12:33.441Z,17.11
2018-09-12T23:23:30.598Z,17.10
2018-09-12T23:34:32.810Z,16.98
2018-09-12T23:45:29.666Z,16.93
2018-09-12T23:56:32.107Z,16.82
